Route Details

Aircraft Information
Group: North America Fleet
Types: B738, B752, B762, B763
Route Data
Distance: 2034nm
Duration: 4h 45m
Origin METAR: KSEA 072353Z 22016G26KT 10SM FEW075 SCT100 BKN150 09/03 A3013 RMK AO2 PK WND 22030/2255 SLP211 SHRA S 60007 T00890028 10100 20078 53009
Dest. METAR: KABE 072351Z AUTO 20007KT 10SM CLR 04/M03 A3016 RMK AO2 SLP218 T00391033 10061 20039 56010
Freight Data
(for Feb 8, 2023)
Load Factor:
58%
Manifested Cargo: 37,829lbs
Financial History
Total Freight: 67,105lbs
Average Load: 0lbs/flt
Fuel Used: 38,442lbs
Avg. Fuel Used: 0lbs/flt
Fuel Expense: $21,143
Avg. Fuel Expense: $0
Avg. Fuel Cost: $0/lbs
Total Gross Income: $181,855
Pilot Pay: $239
Total Expenses: $34,976
Total Revenue: $123,972
Average Revenue: $0

Capitol Logistics 314




KSEA
Seattle-Tacoma International Airport
Seattle, Washington
KABE
Lehigh Valley International Airport
Allentown, Pennsylvania

Activity Log

Date Flight Route Aircraft Duration
08/02/2022 CPX314 DCT SEA DCT NORMY J90 RWF J34 CRL J190 SLT DCT B762 4h 32m